createdAt,value
2023-04-01T05:53:18.991Z,14.43
2023-04-01T06:10:30.386Z,14.48
2023-04-01T06:19:21.632Z,14.46
2023-04-01T06:22:30.975Z,14.48
2023-04-01T06:25:41.842Z,14.44
2023-04-01T06:32:08.225Z,14.47
2023-04-01T06:34:53.329Z,14.42
2023-04-01T06:38:07.988Z,14.44
2023-04-01T06:40:54.393Z,14.47
2023-04-01T06:44:13.397Z,14.52
2023-04-01T06:49:44.244Z,14.52
2023-04-01T06:55:34.148Z,14.58
2023-04-01T07:27:03.517Z,14.81
2023-04-01T07:41:50.139Z,14.81
2023-04-01T07:44:33.620Z,14.89
2023-04-01T07:47:40.799Z,14.94
2023-04-01T07:50:19.879Z,14.93
2023-04-01T08:02:38.964Z,15.03
2023-04-01T08:08:10.153Z,15.13
2023-04-01T08:10:48.569Z,15.08
2023-04-01T08:13:26.777Z,15.03
2023-04-01T08:16:31.431Z,15.04
2023-04-01T08:22:48.550Z,15.10
2023-04-01T08:25:46.473Z,15.26
2023-04-01T08:30:57.544Z,15.43
2023-04-01T08:42:50.428Z,15.49
2023-04-01T08:45:37.591Z,15.51
2023-04-01T08:48:47.479Z,15.53
2023-04-01T08:51:55.038Z,15.55
2023-04-01T08:54:45.569Z,15.57
2023-04-01T08:57:24.069Z,15.53
2023-04-01T09:00:14.500Z,15.53
2023-04-01T09:02:59.489Z,15.52
2023-04-01T09:05:41.277Z,15.52
2023-04-01T09:08:30.060Z,15.57
2023-04-01T09:11:30.187Z,15.55
2023-04-01T09:14:28.037Z,15.58
2023-04-01T09:17:36.587Z,15.52
2023-04-01T09:20:39.735Z,15.38
2023-04-01T09:23:35.135Z,15.26
2023-04-01T09:26:50.960Z,15.14
2023-04-01T09:29:32.638Z,15.06
2023-04-01T09:32:32.369Z,15.06
2023-04-01T09:35:10.182Z,15.00
2023-04-01T09:37:54.040Z,15.04
2023-04-01T09:46:20.983Z,14.91
2023-04-01T09:49:36.230Z,15.03
2023-04-01T09:52:26.472Z,15.07
2023-04-01T09:55:05.298Z,15.16
2023-04-01T09:58:13.210Z,15.22
2023-04-01T10:00:57.801Z,15.27
2023-04-01T10:03:58.079Z,15.37
2023-04-01T10:07:09.509Z,15.32
2023-04-01T10:10:22.365Z,15.27
2023-04-01T10:13:23.200Z,15.26
2023-04-01T10:16:31.486Z,15.16
2023-04-01T10:19:20.597Z,15.06
2023-04-01T10:22:38.281Z,15.04
2023-04-01T10:26:03.001Z,15.02
2023-04-01T10:29:06.595Z,14.98
2023-04-01T10:32:28.554Z,15.06
2023-04-01T10:35:44.837Z,14.99
2023-04-01T10:38:46.552Z,14.97
2023-04-01T10:41:49.639Z,14.93
2023-04-01T10:44:44.330Z,14.95
2023-04-01T10:47:49.371Z,15.04
2023-04-01T10:50:53.947Z,15.10
2023-04-01T10:53:48.749Z,15.22
2023-04-01T10:56:41.051Z,15.35
2023-04-01T10:59:47.045Z,15.38
2023-04-01T11:02:56.430Z,15.42
2023-04-01T11:06:12.824Z,15.46
2023-04-01T11:09:24.758Z,15.48
2023-04-01T11:12:33.576Z,15.46
2023-04-01T11:15:31.740Z,15.50
2023-04-01T11:21:16.616Z,15.52
2023-04-01T11:24:05.753Z,15.55
2023-04-01T11:26:54.228Z,15.57
2023-04-01T11:33:15.881Z,15.43
2023-04-01T11:36:17.006Z,15.31
2023-04-01T11:39:03.159Z,15.28
2023-04-01T11:41:41.313Z,15.28
2023-04-01T11:47:26.662Z,15.36
2023-04-01T12:05:58.449Z,15.58
2023-04-01T12:09:34.066Z,15.55
2023-04-01T12:35:57.334Z,15.50
2023-04-01T12:38:40.725Z,15.55
2023-04-01T12:41:21.776Z,15.60
2023-04-01T12:44:31.835Z,15.67
2023-04-01T12:47:43.114Z,15.66
2023-04-01T12:50:39.730Z,15.72
2023-04-01T12:53:36.371Z,15.78
2023-04-01T12:56:13.801Z,15.82
2023-04-01T12:59:21.912Z,15.95
2023-04-01T13:02:09.612Z,16.00
2023-04-01T13:04:59.122Z,16.11
2023-04-01T13:07:59.395Z,16.15
2023-04-01T13:10:40.996Z,16.13
2023-04-01T13:13:40.442Z,16.08
2023-04-01T13:16:17.413Z,16.30
2023-04-01T13:18:59.928Z,16.55
2023-04-01T13:21:50.165Z,16.79
2023-04-01T13:24:29.691Z,16.94
2023-04-01T13:27:13.047Z,17.05
2023-04-01T13:29:43.636Z,17.17
2023-04-01T13:32:33.371Z,17.29
2023-04-01T13:35:23.379Z,17.31
2023-04-01T13:38:08.047Z,17.29
2023-04-01T13:40:52.355Z,17.33
2023-04-01T13:43:34.020Z,17.46
2023-04-01T13:46:21.697Z,17.63
2023-04-01T13:49:14.646Z,17.93
2023-04-01T13:52:01.980Z,18.27
2023-04-01T13:54:52.342Z,18.50
2023-04-01T13:57:46.026Z,18.74
2023-04-01T14:00:55.158Z,18.72
2023-04-01T14:03:46.483Z,18.97
2023-04-01T14:09:46.917Z,19.23
2023-04-01T14:12:28.408Z,19.42
2023-04-01T14:15:12.673Z,19.37
2023-04-01T14:17:54.761Z,19.16
2023-04-01T14:20:31.549Z,19.34
2023-04-01T14:23:25.712Z,19.47
2023-04-01T14:29:02.559Z,19.14
2023-04-01T14:31:42.386Z,19.61
2023-04-01T14:34:27.885Z,20.05
2023-04-01T14:37:06.619Z,20.57
2023-04-01T14:40:08.345Z,20.87
2023-04-01T14:43:19.345Z,21.03
2023-04-01T14:46:25.462Z,21.02
2023-04-01T14:48:58.522Z,21.04
2023-04-01T14:51:35.234Z,20.96
2023-04-01T14:54:25.457Z,21.03
2023-04-01T14:57:07.846Z,21.19
2023-04-01T14:59:42.264Z,21.48
2023-04-01T15:02:26.406Z,21.79
2023-04-01T15:05:14.759Z,21.87
2023-04-01T15:08:07.359Z,21.74
2023-04-01T15:11:06.900Z,21.31
2023-04-01T15:14:17.553Z,21.61
2023-04-01T15:17:15.615Z,21.98
2023-04-01T15:20:02.899Z,22.45
2023-04-01T15:23:03.356Z,22.79
2023-04-01T15:25:44.724Z,23.14
2023-04-01T15:28:25.867Z,23.22
2023-04-01T15:31:01.380Z,23.35
2023-04-01T15:33:46.207Z,23.51
2023-04-01T15:36:30.411Z,23.68
2023-04-01T15:39:06.192Z,23.66
2023-04-01T15:41:43.418Z,23.63
2023-04-01T15:44:39.405Z,23.45
2023-04-01T15:47:39.721Z,23.28
2023-04-01T15:50:39.981Z,23.09
2023-04-01T15:53:37.310Z,23.24
2023-04-01T15:56:21.116Z,23.31
2023-04-01T15:59:03.576Z,23.52
2023-04-01T16:01:50.053Z,23.67
2023-04-01T16:04:48.688Z,23.64
2023-04-01T16:07:59.826Z,23.59
2023-04-01T16:10:56.896Z,22.96
2023-04-01T16:13:50.950Z,22.00
2023-04-01T16:16:32.827Z,21.11
2023-04-01T16:19:15.107Z,20.52
2023-04-01T16:21:51.380Z,20.03
2023-04-01T16:24:27.171Z,19.67
2023-04-01T16:26:59.003Z,19.44
2023-04-01T16:29:38.406Z,19.29
2023-04-01T16:32:20.245Z,19.37
2023-04-01T16:35:00.513Z,19.59
2023-04-01T16:37:42.388Z,19.72
2023-04-01T16:40:26.506Z,19.86
2023-04-01T16:42:58.403Z,19.82
2023-04-01T16:45:36.532Z,19.67
2023-04-01T16:48:13.615Z,19.48
2023-04-01T16:50:56.304Z,19.27
2023-04-01T16:53:38.911Z,19.28
2023-04-01T16:56:27.688Z,19.50
2023-04-01T16:59:05.237Z,19.16
2023-04-01T17:01:55.028Z,19.24
2023-04-01T17:04:35.747Z,19.85
2023-04-01T17:07:27.038Z,19.96
2023-04-01T17:10:39.685Z,19.97
2023-04-01T17:17:30.647Z,19.67
2023-04-01T17:20:10.814Z,19.76
2023-04-01T17:23:01.000Z,20.09
2023-04-01T17:25:51.408Z,20.06
2023-04-01T17:28:30.030Z,19.77
2023-04-01T17:31:08.984Z,19.37
2023-04-01T17:33:58.452Z,18.96
2023-04-01T17:36:42.576Z,18.50
2023-04-01T17:39:25.261Z,18.07
2023-04-01T17:42:02.521Z,17.72
2023-04-01T17:44:40.195Z,17.48
2023-04-01T17:47:30.346Z,17.34
2023-04-01T17:50:12.343Z,17.13
2023-04-01T17:52:44.464Z,17.06
2023-04-01T17:55:48.846Z,16.96
2023-04-01T17:58:22.628Z,17.20
2023-04-01T18:01:05.077Z,17.54
2023-04-01T18:03:55.898Z,17.70
2023-04-01T18:06:33.577Z,18.12
2023-04-01T18:09:07.467Z,18.44
2023-04-01T18:11:46.944Z,18.73
2023-04-01T18:14:39.262Z,18.97
2023-04-01T18:17:21.308Z,19.12
2023-04-01T18:20:14.860Z,19.08
2023-04-01T18:22:46.653Z,19.04
2023-04-01T18:25:24.287Z,19.17
2023-04-01T18:27:56.043Z,19.20
2023-04-01T18:30:31.758Z,19.05
2023-04-01T18:33:06.152Z,18.76
2023-04-01T18:35:49.574Z,18.50
2023-04-01T18:38:21.352Z,18.15
2023-04-01T18:40:53.688Z,17.72
2023-04-01T18:43:38.902Z,17.26
2023-04-01T18:46:19.209Z,16.71
2023-04-01T18:48:54.705Z,16.32
2023-04-01T18:51:28.030Z,15.98
2023-04-01T18:54:00.775Z,15.67
2023-04-01T18:56:32.912Z,15.44
2023-04-01T18:59:07.806Z,15.29
2023-04-01T19:01:43.409Z,15.12
2023-04-01T19:04:22.614Z,14.96
2023-04-01T19:06:53.008Z,14.86
2023-04-01T19:09:25.654Z,14.75
2023-04-01T19:12:33.590Z,14.68
2023-04-01T19:15:28.066Z,14.58
2023-04-01T19:18:25.115Z,14.50
2023-04-01T19:20:59.380Z,14.43
2023-04-01T19:24:08.788Z,14.36
2023-04-01T19:26:42.073Z,14.33
2023-04-01T19:29:27.736Z,14.28
2023-04-01T19:32:07.548Z,14.23
2023-04-01T19:34:47.799Z,14.18
2023-04-01T19:37:28.663Z,14.14
2023-04-01T19:40:06.686Z,14.14
2023-04-01T19:42:46.485Z,14.12
2023-04-01T19:45:28.560Z,14.10
2023-04-01T19:48:07.038Z,14.09
2023-04-01T19:50:41.973Z,14.11
2023-04-01T19:53:21.439Z,14.06
2023-04-01T19:55:55.276Z,14.01
2023-04-01T19:58:34.753Z,14.01
2023-04-01T20:01:06.014Z,13.93
2023-04-01T20:03:45.745Z,13.94
2023-04-01T20:09:53.418Z,13.86
2023-04-01T20:12:35.169Z,13.84
2023-04-01T20:15:06.285Z,13.78
2023-04-01T20:17:42.456Z,13.77
2023-04-01T20:20:22.807Z,13.74
2023-04-01T20:23:22.954Z,13.71
2023-04-01T20:25:57.005Z,13.68
2023-04-01T20:28:32.816Z,13.63
2023-04-01T20:31:26.210Z,13.63
2023-04-01T20:34:25.485Z,13.59
2023-04-01T20:37:03.381Z,13.58
2023-04-01T20:39:55.126Z,13.54
2023-04-01T20:42:56.688Z,13.52
2023-04-01T20:45:41.199Z,13.45
2023-04-01T20:48:31.404Z,13.45
2023-04-01T20:51:06.440Z,13.45
2023-04-01T20:53:42.192Z,13.43
2023-04-01T20:56:26.806Z,13.40
2023-04-01T20:59:02.035Z,13.44
2023-04-01T21:01:43.443Z,13.39
2023-04-01T21:04:25.953Z,13.43
2023-04-01T21:07:15.857Z,13.45
2023-04-01T21:09:58.411Z,13.42
2023-04-01T21:12:38.381Z,13.41
2023-04-01T21:15:34.107Z,13.39
2023-04-01T21:18:15.601Z,13.40
2023-04-01T21:21:13.817Z,13.34
2023-04-01T21:24:09.256Z,13.31
2023-04-01T21:26:54.964Z,13.28
2023-04-01T21:29:42.607Z,13.25
2023-04-01T21:32:25.798Z,13.20
2023-04-01T21:35:00.212Z,13.18
2023-04-01T21:37:54.615Z,13.14
2023-04-01T21:40:52.553Z,13.14
2023-04-01T21:43:38.088Z,13.09
2023-04-01T21:46:34.082Z,13.09
2023-04-01T21:49:17.634Z,13.07
2023-04-01T21:52:08.522Z,13.07
2023-04-01T21:55:22.133Z,13.06
2023-04-01T21:58:49.889Z,13.03
2023-04-01T22:01:40.285Z,12.99
2023-04-01T22:04:24.795Z,12.96
2023-04-01T22:06:59.027Z,12.95
2023-04-01T22:09:34.276Z,12.94
2023-04-01T22:12:10.747Z,12.94
2023-04-01T22:14:45.940Z,12.93
2023-04-01T22:17:24.214Z,12.96
2023-04-01T22:20:04.268Z,12.98
2023-04-01T22:22:52.336Z,12.96
2023-04-01T22:25:29.593Z,12.95
2023-04-01T22:28:05.365Z,12.94
2023-04-01T22:30:36.850Z,12.93
2023-04-01T22:33:12.605Z,12.93
2023-04-01T22:35:49.132Z,12.92
2023-04-01T22:38:32.614Z,12.90
2023-04-01T22:41:07.597Z,12.89
2023-04-01T22:43:40.725Z,12.89
2023-04-01T22:46:37.116Z,12.88
2023-04-01T22:49:12.168Z,12.88
2023-04-01T22:51:45.893Z,12.86
2023-04-01T22:54:22.398Z,12.87
2023-04-01T22:56:58.157Z,12.85
2023-04-01T22:59:34.402Z,12.82
2023-04-01T23:02:09.026Z,12.82
2023-04-01T23:04:44.302Z,12.83
2023-04-01T23:07:30.740Z,12.80
2023-04-01T23:10:00.050Z,12.75
2023-04-01T23:12:28.882Z,12.76
2023-04-01T23:15:01.513Z,12.73
2023-04-01T23:17:44.916Z,12.71
2023-04-01T23:20:33.054Z,12.70
2023-04-01T23:23:43.373Z,12.68
2023-04-01T23:26:15.653Z,12.66
2023-04-01T23:28:49.795Z,12.65
2023-04-01T23:31:29.812Z,12.66
2023-04-01T23:33:59.697Z,12.65
2023-04-01T23:36:29.906Z,12.62
2023-04-01T23:39:01.265Z,12.62
2023-04-01T23:41:33.327Z,12.62
2023-04-01T23:44:04.900Z,12.62
2023-04-01T23:46:36.561Z,12.59
2023-04-01T23:49:07.537Z,12.56
2023-04-01T23:51:42.425Z,12.57
2023-04-01T23:54:18.829Z,12.56
2023-04-01T23:56:51.257Z,12.52
2023-04-01T23:59:21.266Z,12.51
